• Join FlightAware (Why Join?)
  • Login
  • US Flag 
05:30AM EST


 

Airport Tracker/Info


-or-


 

Live Flight TrackerFlight Track Log ✈ SKW4740 ✈ 07-May-2013 ✈ KFAR - KMSP

Flight Track Log - Related Links

Times and Time Zones

All times are in EDT time to prevent confusion due to time zone crossing. See the SKW4740 flight status page for this flight to view local times or setup timezone preferences in your user account.

Time Position Orientation Groundspeed Altitude Reporting Facility
EDT Latitude Longitude Course Direction KTS MPH feet Rate Location/Type
10:20AM 46.8756 -96.7550 98° East 189 217 3,200  Level Minneapolis Center
10:21AM 46.8428 -96.6647 118° Southeast 242 278 5,500 2,613 Climbing Minneapolis Center
10:22AM 46.6814 -96.3691 113° Southeast  Level Estimated
10:22AM 46.8400 -96.5486 92° East 283 326 8,600  Level Minneapolis Center
10:23AM 46.6213 -96.2580 119° Southeast  Level Estimated
10:23AM 46.8414 -96.4356 89° East 292 336 11,000  Level Minneapolis Center
10:24AM 46.5611 -96.1472 119° Southeast  Level Estimated
10:24AM 46.8264 -96.3064 100° East 308 354 13,200  Level Minneapolis Center
10:25AM 46.5468 -96.0076 98° East  Level FlightAware Approximate
10:25AM 46.7878 -96.1861 115° Southeast 320 368 15,400  Level Minneapolis Center
10:26AM 46.7392 -96.0658 120° Southeast 327 376 17,200 1,548 Climbing Minneapolis Center
10:27AM 46.6944 -95.9567 121° Southeast 335 386 18,600 1,403 Climbing Minneapolis Center
10:28AM 46.6483 -95.8403 120° Southeast 340 391 20,100 1,597 Climbing Minneapolis Center
10:29AM 46.5894 -95.6925 120° Southeast 352 405 21,900 1,355 Climbing Minneapolis Center
10:30AM 46.5386 -95.5686 121° Southeast 356 410 22,900 532 Climbing Minneapolis Center
10:31AM 46.4872 -95.4417 120° Southeast 383 441 23,000 48 Climbing Minneapolis Center
10:32AM 46.4300 -95.3078 122° Southeast 392 451 23,000  Level Minneapolis Center
10:33AM 46.3503 -95.1533 127° Southeast 399 459 23,000  Level Minneapolis Center
10:34AM 46.2847 -95.0233 126° Southeast 401 461 23,000  Level Minneapolis Center
10:35AM 46.2186 -94.8939 126° Southeast 401 461 23,000  Level Minneapolis Center
10:36AM 46.1564 -94.7728 127° Southeast 401 461 23,000  Level Minneapolis Center
10:37AM 46.0778 -94.6178 126° Southeast 400 460 23,000  Level Minneapolis Center
10:39AM 45.9453 -94.3636 127° Southeast 398 458 23,000  Level Minneapolis Center
10:40AM 45.8778 -94.2342 127° Southeast 404 465 23,000  Level Minneapolis Center
10:41AM 45.8125 -94.1069 126° Southeast 399 459 23,000  Level Minneapolis Center
10:42AM 45.7450 -93.9797 127° Southeast 402 463 23,000  Level Minneapolis Center
10:43AM 45.6639 -93.8264 127° Southeast 404 465 23,000  Level Minneapolis Center
10:44AM 45.5964 -93.6983 127° Southeast 403 464 23,000 -1,016 Level Minneapolis Center
10:45AM 45.5222 -93.5764 131° Southeast 410 472 20,900 -2,468 Descending Minneapolis Center
10:46AM 45.4164 -93.5167 158° South 408 470 17,900 -2,855 Descending Minneapolis Center
10:47AM 45.3150 -93.4636 160° South 385 443 15,000 -2,855 Descending Minneapolis Center
10:48AM 45.2192 -93.4131 160° South 368 423 12,000 -2,371 Descending Minneapolis Center
10:50AM 45.1164 -93.3581 159° South 321 369 10,100 -1,694 Descending Minneapolis Center
10:51AM 45.0442 -93.3194 159° South 282 325 8,500 -1,016 Descending Minneapolis Center
10:52AM 44.9942 -93.2486 135° Southeast 267 307 8,000 -339 Descending Minneapolis Center
10:53AM 44.9567 -93.1547 119° Southeast 272 313 7,800 -871 Descending Minneapolis Center
10:54AM 44.9222 -93.0661 119° Southeast 256 295 6,200 -1,790 Descending Minneapolis Center
10:55AM 44.8856 -92.9797 121° Southeast 255 293 4,100 -1,306 Descending Minneapolis Center
10:56AM 44.8386 -93.0111 205° Southwest 216 249 3,500 -581 Descending Minneapolis Center